createdAt,value
2017-10-07T00:00:38.984Z,3.77
2017-10-07T00:06:25.803Z,3.70
2017-10-07T00:12:09.462Z,3.97
2017-10-07T00:17:52.387Z,3.07
2017-10-07T00:23:37.259Z,5.10
2017-10-07T00:29:19.739Z,4.33
2017-10-07T00:35:06.434Z,4.40
2017-10-07T00:40:50.763Z,4.77
2017-10-07T00:46:38.332Z,4.93
2017-10-07T00:52:22.247Z,5.07
2017-10-07T00:58:06.871Z,4.13
2017-10-07T01:03:53.846Z,5.50
2017-10-07T01:09:36.106Z,5.20
2017-10-07T01:15:25.317Z,3.93
2017-10-07T01:21:05.790Z,5.00
2017-10-07T01:26:51.206Z,4.73
2017-10-07T01:32:40.376Z,4.23
2017-10-07T01:38:24.417Z,3.70
2017-10-07T01:44:11.210Z,3.37
2017-10-07T01:49:54.591Z,3.63
2017-10-07T01:55:37.243Z,3.47
2017-10-07T02:01:26.904Z,3.93
2017-10-07T02:07:07.558Z,4.40
2017-10-07T02:12:54.458Z,4.23
2017-10-07T02:18:37.531Z,4.73
2017-10-07T02:24:19.467Z,4.27
2017-10-07T02:30:06.588Z,4.27
2017-10-07T02:35:51.446Z,4.30
2017-10-07T02:41:36.164Z,4.10
2017-10-07T02:47:22.747Z,2.87
2017-10-07T02:53:09.538Z,4.03
2017-10-07T02:58:52.376Z,4.70
2017-10-07T03:04:37.186Z,3.13
2017-10-07T03:10:20.205Z,3.80
2017-10-07T03:16:06.776Z,2.87
2017-10-07T03:21:50.159Z,3.63
2017-10-07T03:27:36.825Z,2.57
2017-10-07T03:33:25.777Z,3.00
2017-10-07T03:39:08.666Z,4.20
2017-10-07T03:44:51.343Z,3.20
2017-10-07T03:50:38.032Z,2.80
2017-10-07T03:56:22.787Z,4.07
2017-10-07T04:02:12.317Z,2.47
2017-10-07T04:07:55.891Z,3.17
2017-10-07T04:13:38.655Z,2.40
2017-10-07T04:19:21.712Z,2.90
2017-10-07T04:25:08.535Z,2.77
2017-10-07T04:30:53.479Z,3.03
2017-10-07T04:36:36.466Z,2.87
2017-10-07T04:42:21.270Z,3.03
2017-10-07T04:48:06.379Z,2.57
2017-10-07T04:53:55.670Z,2.73
2017-10-07T04:59:38.957Z,2.40
2017-10-07T05:05:23.554Z,1.70
2017-10-07T05:11:07.318Z,1.90
2017-10-07T05:16:56.365Z,1.90
2017-10-07T05:22:39.209Z,2.10
2017-10-07T05:28:22.082Z,1.93
2017-10-07T05:34:08.827Z,4.17
2017-10-07T05:39:53.446Z,3.10
2017-10-07T05:45:38.253Z,2.83
2017-10-07T05:51:23.295Z,3.10
2017-10-07T05:57:07.287Z,4.90
2017-10-07T06:02:56.085Z,4.77
2017-10-07T06:08:39.378Z,5.30
2017-10-07T06:14:22.142Z,4.00
2017-10-07T06:20:06.792Z,4.23
2017-10-07T06:25:55.590Z,3.60
2017-10-07T06:31:39.202Z,3.90
2017-10-07T06:37:22.752Z,4.07
2017-10-07T06:43:07.713Z,4.77
2017-10-07T06:48:56.769Z,4.40
2017-10-07T06:54:39.419Z,5.13
2017-10-07T07:00:22.435Z,5.70
2017-10-07T07:06:10.933Z,6.40
2017-10-07T07:11:51.427Z,4.40
2017-10-07T07:17:36.172Z,4.20
2017-10-07T07:23:25.349Z,3.90
2017-10-07T07:29:08.614Z,4.20
2017-10-07T07:34:51.508Z,3.20
2017-10-07T07:40:40.645Z,4.20
2017-10-07T07:46:23.190Z,3.80
2017-10-07T07:52:10.286Z,3.00
2017-10-07T07:57:56.947Z,3.70
2017-10-07T08:03:40.031Z,3.40
2017-10-07T08:09:23.496Z,3.90
2017-10-07T08:15:06.486Z,4.70
2017-10-07T08:20:55.989Z,4.33
2017-10-07T08:26:36.086Z,4.40
2017-10-07T08:32:23.336Z,5.17
2017-10-07T08:38:08.007Z,4.93
2017-10-07T08:43:57.345Z,5.40
2017-10-07T08:49:40.639Z,5.03
2017-10-07T08:55:23.929Z,5.63
2017-10-07T09:01:06.469Z,4.53
2017-10-07T09:06:55.845Z,5.77
2017-10-07T09:12:39.375Z,5.10
2017-10-07T09:18:23.125Z,4.93
2017-10-07T09:24:12.284Z,5.47
2017-10-07T09:29:54.943Z,5.30
2017-10-07T09:35:39.455Z,5.00
2017-10-07T09:41:22.340Z,6.40
2017-10-07T09:47:11.549Z,6.20
2017-10-07T09:52:54.548Z,7.73
2017-10-07T09:58:39.139Z,6.80
2017-10-07T10:04:21.651Z,7.17
2017-10-07T10:10:10.776Z,7.77
2017-10-07T10:15:55.951Z,7.70
2017-10-07T10:21:38.611Z,8.27
2017-10-07T10:27:21.399Z,9.10
2017-10-07T10:33:10.880Z,9.23
2017-10-07T10:38:54.206Z,9.07
2017-10-07T10:44:39.295Z,8.80
2017-10-07T10:50:22.031Z,9.47
2017-10-07T10:56:08.679Z,7.60
2017-10-07T11:01:55.287Z,9.07
2017-10-07T11:07:39.415Z,7.30
2017-10-07T11:13:24.024Z,7.67
2017-10-07T11:19:08.335Z,6.83
2017-10-07T11:24:54.825Z,6.93
2017-10-07T11:30:38.567Z,6.60
2017-10-07T11:36:25.463Z,8.43
2017-10-07T11:42:08.080Z,7.03
2017-10-07T11:47:52.975Z,5.67
2017-10-07T11:53:41.902Z,7.23
2017-10-07T11:59:25.427Z,6.00
2017-10-07T12:05:08.587Z,6.33
2017-10-07T12:10:51.575Z,6.67
2017-10-07T12:16:38.143Z,8.13
2017-10-07T12:22:25.015Z,7.87
2017-10-07T12:28:07.742Z,8.67
2017-10-07T12:33:56.969Z,8.10
2017-10-07T12:39:37.498Z,8.73
2017-10-07T12:45:24.758Z,8.90
2017-10-07T12:51:08.312Z,8.13
2017-10-07T12:56:52.614Z,10.03
2017-10-07T13:02:41.213Z,9.10
2017-10-07T13:08:26.470Z,11.27
2017-10-07T13:14:11.531Z,9.37
2017-10-07T13:19:58.828Z,10.47
2017-10-07T13:25:38.731Z,9.80
2017-10-07T13:31:26.167Z,9.47
2017-10-07T13:37:12.490Z,9.60
2017-10-07T13:42:55.595Z,9.83
2017-10-07T13:48:38.608Z,8.00
2017-10-07T13:54:25.542Z,7.50
2017-10-07T14:00:11.222Z,7.37
2017-10-07T14:05:53.818Z,6.83
2017-10-07T14:11:40.219Z,6.47
2017-10-07T14:17:22.523Z,7.20
2017-10-07T14:23:11.833Z,8.00
2017-10-07T14:28:54.878Z,7.17
2017-10-07T14:34:37.667Z,7.27
2017-10-07T14:40:26.901Z,5.43
2017-10-07T14:46:14.405Z,6.37
2017-10-07T14:51:54.677Z,7.93
2017-10-07T14:57:40.080Z,7.00
2017-10-07T15:03:22.960Z,7.50
2017-10-07T15:09:12.337Z,5.53
2017-10-07T15:14:56.374Z,7.33
2017-10-07T15:20:38.943Z,6.40
2017-10-07T15:26:28.002Z,5.93
2017-10-07T15:32:10.918Z,6.50
2017-10-07T15:37:54.426Z,6.40
2017-10-07T15:43:37.203Z,7.60
2017-10-07T15:49:23.970Z,7.90
2017-10-07T15:55:11.118Z,7.50
2017-10-07T16:00:53.991Z,8.77
2017-10-07T16:06:37.154Z,8.20
2017-10-07T16:12:21.604Z,9.53
2017-10-07T16:18:08.511Z,8.30
2017-10-07T16:23:55.983Z,7.80
2017-10-07T16:29:42.798Z,8.83
2017-10-07T16:35:25.027Z,6.50
2017-10-07T16:41:09.239Z,7.17
2017-10-07T16:46:58.793Z,7.07
2017-10-07T16:52:38.835Z,8.40
2017-10-07T16:58:25.630Z,6.17
2017-10-07T17:04:08.343Z,7.77
2017-10-07T17:09:55.022Z,8.80
2017-10-07T17:15:39.418Z,8.70
2017-10-07T17:21:24.291Z,7.77
2017-10-07T17:27:11.239Z,10.10
2017-10-07T17:32:53.915Z,8.33
2017-10-07T17:38:38.661Z,8.70
2017-10-07T17:44:25.299Z,10.30
2017-10-07T17:50:07.934Z,11.33
2017-10-07T17:55:57.341Z,9.37
2017-10-07T18:01:40.663Z,9.73
2017-10-07T18:07:23.618Z,9.03
2017-10-07T18:13:08.235Z,9.50
2017-10-07T18:18:57.544Z,10.33
2017-10-07T18:24:40.796Z,10.03
2017-10-07T18:30:24.050Z,11.77
2017-10-07T18:36:13.356Z,9.53
2017-10-07T18:41:56.567Z,13.03
2017-10-07T18:47:39.646Z,14.80
2017-10-07T18:53:25.418Z,11.90
2017-10-07T18:59:12.272Z,12.67
2017-10-07T19:04:55.748Z,13.47
2017-10-07T19:10:40.611Z,13.27
2017-10-07T19:16:25.595Z,10.40
2017-10-07T19:22:10.414Z,12.43
2017-10-07T19:27:59.309Z,13.97
2017-10-07T19:33:39.932Z,11.80
2017-10-07T19:39:27.335Z,10.73
2017-10-07T19:45:10.058Z,13.17
2017-10-07T19:50:56.662Z,9.43
2017-10-07T19:56:39.592Z,9.27
2017-10-07T20:02:24.391Z,8.87
2017-10-07T20:08:13.589Z,10.17
2017-10-07T20:14:02.489Z,9.80
2017-10-07T20:19:39.291Z,11.03
2017-10-07T20:25:22.327Z,9.37
2017-10-07T20:31:08.886Z,10.43
2017-10-07T20:36:55.295Z,9.13
2017-10-07T20:42:38.066Z,9.57
2017-10-07T20:48:25.154Z,8.90
2017-10-07T20:54:14.094Z,9.63
2017-10-07T20:59:57.462Z,7.10
2017-10-07T21:05:40.307Z,10.03
2017-10-07T21:11:23.067Z,8.10
2017-10-07T21:17:07.755Z,9.73
2017-10-07T21:22:56.624Z,7.70
2017-10-07T21:28:40.183Z,8.47
2017-10-07T21:34:23.318Z,7.60
2017-10-07T21:40:07.870Z,7.20
2017-10-07T21:45:54.851Z,6.93
2017-10-07T21:51:38.787Z,6.93
2017-10-07T21:57:25.488Z,7.20
2017-10-07T22:03:08.598Z,6.80
2017-10-07T22:08:55.439Z,6.80
2017-10-07T22:14:38.196Z,6.43
2017-10-07T22:20:25.043Z,6.10
2017-10-07T22:26:14.098Z,7.07
2017-10-07T22:31:57.405Z,7.33
2017-10-07T22:37:40.303Z,4.90
2017-10-07T22:43:25.302Z,6.60
2017-10-07T22:49:08.679Z,7.03
2017-10-07T22:54:55.018Z,6.83
2017-10-07T23:00:38.551Z,7.50
2017-10-07T23:06:25.375Z,7.50
2017-10-07T23:12:08.011Z,7.00
2017-10-07T23:17:54.954Z,4.90
2017-10-07T23:23:41.466Z,4.57
2017-10-07T23:29:24.651Z,5.00
2017-10-07T23:35:09.517Z,4.43
2017-10-07T23:40:58.399Z,3.93
2017-10-07T23:46:38.490Z,4.10
2017-10-07T23:52:23.815Z,4.23
2017-10-07T23:58:10.284Z,3.40
